sensor_id;sensor_type;location;lat;lon;timestamp;pressure;altitude;pressure_sealevel;temperature;humidity
68077;BME280;54866;53.458;14.540;2022-09-29T00:01:53;99102.20;;;5.84;98.23
68077;BME280;54866;53.458;14.540;2022-09-29T00:04:22;99101.64;;;5.82;98.29
68077;BME280;54866;53.458;14.540;2022-09-29T00:06:52;99102.59;;;5.82;98.48
68077;BME280;54866;53.458;14.540;2022-09-29T00:09:22;99098.70;;;5.80;98.49
68077;BME280;54866;53.458;14.540;2022-09-29T00:11:55;99104.42;;;5.78;98.61
68077;BME280;54866;53.458;14.540;2022-09-29T00:14:23;99110.86;;;5.77;98.73
68077;BME280;54866;53.458;14.540;2022-09-29T00:16:53;99106.90;;;5.74;98.84
68077;BME280;54866;53.458;14.540;2022-09-29T00:19:23;99105.20;;;5.71;98.80
68077;BME280;54866;53.458;14.540;2022-09-29T00:21:55;99106.61;;;5.71;98.92
68077;BME280;54866;53.458;14.540;2022-09-29T00:24:28;99107.45;;;5.69;99.13
68077;BME280;54866;53.458;14.540;2022-09-29T00:26:59;99110.73;;;5.67;99.21
68077;BME280;54866;53.458;14.540;2022-09-29T00:29:28;99100.11;;;5.59;99.44
68077;BME280;54866;53.458;14.540;2022-09-29T00:31:58;99115.11;;;5.65;99.52
68077;BME280;54866;53.458;14.540;2022-09-29T00:34:28;99117.09;;;5.65;99.48
68077;BME280;54866;53.458;14.540;2022-09-29T00:36:58;99116.61;;;5.64;99.57
68077;BME280;54866;53.458;14.540;2022-09-29T00:39:28;99119.27;;;5.61;99.56
68077;BME280;54866;53.458;14.540;2022-09-29T00:41:58;99102.15;;;5.47;99.43
68077;BME280;54866;53.458;14.540;2022-09-29T00:47:40;99121.06;;;5.53;99.47
68077;BME280;54866;53.458;14.540;2022-09-29T00:50:15;99125.65;;;5.50;99.63
68077;BME280;54866;53.458;14.540;2022-09-29T00:52:52;99129.00;;;5.47;99.66
68077;BME280;54866;53.458;14.540;2022-09-29T00:55:27;99130.14;;;5.44;99.71
68077;BME280;54866;53.458;14.540;2022-09-29T00:58:02;99128.85;;;5.41;99.71
68077;BME280;54866;53.458;14.540;2022-09-29T01:00:33;99128.85;;;5.36;99.76
68077;BME280;54866;53.458;14.540;2022-09-29T01:03:07;99127.20;;;5.33;99.63
68077;BME280;54866;53.458;14.540;2022-09-29T01:05:43;99129.15;;;5.29;99.77
68077;BME280;54866;53.458;14.540;2022-09-29T01:08:19;99135.73;;;5.25;99.78
68077;BME280;54866;53.458;14.540;2022-09-29T01:10:53;99134.54;;;5.23;99.76
68077;BME280;54866;53.458;14.540;2022-09-29T01:13:23;99129.55;;;5.19;99.76
68077;BME280;54866;53.458;14.540;2022-09-29T01:15:53;99127.44;;;5.17;99.85
68077;BME280;54866;53.458;14.540;2022-09-29T01:18:23;99131.16;;;5.17;100.00
68077;BME280;54866;53.458;14.540;2022-09-29T01:20:58;99135.31;;;5.15;100.00
68077;BME280;54866;53.458;14.540;2022-09-29T01:23:50;99133.31;;;5.14;100.00
68077;BME280;54866;53.458;14.540;2022-09-29T01:26:52;99136.52;;;5.13;100.00
68077;BME280;54866;53.458;14.540;2022-09-29T01:32:36;99141.36;;;5.13;100.00
68077;BME280;54866;53.458;14.540;2022-09-29T01:35:13;99141.77;;;5.15;100.00
68077;BME280;54866;53.458;14.540;2022-09-29T01:37:56;99141.10;;;5.17;100.00
68077;BME280;54866;53.458;14.540;2022-09-29T01:40:37;99146.08;;;5.18;100.00
68077;BME280;54866;53.458;14.540;2022-09-29T01:43:12;99148.15;;;5.18;100.00
68077;BME280;54866;53.458;14.540;2022-09-29T01:45:52;99148.58;;;5.17;100.00
68077;BME280;54866;53.458;14.540;2022-09-29T01:48:29;99149.98;;;5.15;100.00
68077;BME280;54866;53.458;14.540;2022-09-29T01:51:06;99148.00;;;5.13;100.00
68077;BME280;54866;53.458;14.540;2022-09-29T01:53:43;99149.96;;;5.11;100.00
68077;BME280;54866;53.458;14.540;2022-09-29T01:56:19;99150.71;;;5.08;100.00
68077;BME280;54866;53.458;14.540;2022-09-29T01:58:54;99152.11;;;5.06;100.00
68077;BME280;54866;53.458;14.540;2022-09-29T02:01:30;99149.98;;;5.04;100.00
68077;BME280;54866;53.458;14.540;2022-09-29T02:04:04;99151.20;;;5.02;100.00
68077;BME280;54866;53.458;14.540;2022-09-29T02:06:38;99154.00;;;4.99;100.00
68077;BME280;54866;53.458;14.540;2022-09-29T02:09:15;99154.25;;;4.97;100.00
68077;BME280;54866;53.458;14.540;2022-09-29T02:11:51;99157.50;;;4.93;100.00
68077;BME280;54866;53.458;14.540;2022-09-29T02:14:29;99156.90;;;4.90;100.00
68077;BME280;54866;53.458;14.540;2022-09-29T02:17:07;99163.16;;;4.88;100.00
68077;BME280;54866;53.458;14.540;2022-09-29T02:19:42;99163.55;;;4.85;100.00
68077;BME280;54866;53.458;14.540;2022-09-29T02:22:13;99165.66;;;4.82;100.00
68077;BME280;54866;53.458;14.540;2022-09-29T02:24:43;99169.55;;;4.80;100.00
68077;BME280;54866;53.458;14.540;2022-09-29T02:27:13;99171.67;;;4.77;100.00
68077;BME280;54866;53.458;14.540;2022-09-29T02:29:44;99170.38;;;4.73;100.00
68077;BME280;54866;53.458;14.540;2022-09-29T02:32:14;99169.79;;;4.70;100.00
68077;BME280;54866;53.458;14.540;2022-09-29T02:34:47;99170.65;;;4.68;100.00
68077;BME280;54866;53.458;14.540;2022-09-29T02:37:31;99173.15;;;4.65;99.99
68077;BME280;54866;53.458;14.540;2022-09-29T02:40:20;99173.45;;;4.61;100.00
68077;BME280;54866;53.458;14.540;2022-09-29T02:43:00;99173.73;;;4.58;99.97
68077;BME280;54866;53.458;14.540;2022-09-29T02:45:39;99178.13;;;4.55;99.92
68077;BME280;54866;53.458;14.540;2022-09-29T02:48:48;99174.92;;;4.51;99.90
68077;BME280;54866;53.458;14.540;2022-09-29T02:51:28;99178.12;;;4.48;99.85
68077;BME280;54866;53.458;14.540;2022-09-29T02:54:17;99179.49;;;4.46;99.92
68077;BME280;54866;53.458;14.540;2022-09-29T02:56:56;99182.59;;;4.44;99.98
68077;BME280;54866;53.458;14.540;2022-09-29T02:59:36;99182.59;;;4.42;99.99
68077;BME280;54866;53.458;14.540;2022-09-29T03:02:09;99179.70;;;4.41;100.00
68077;BME280;54866;53.458;14.540;2022-09-29T03:04:39;99179.15;;;4.42;100.00
68077;BME280;54866;53.458;14.540;2022-09-29T03:07:09;99180.23;;;4.41;100.00
68077;BME280;54866;53.458;14.540;2022-09-29T03:09:38;99179.55;;;4.41;100.00
68077;BME280;54866;53.458;14.540;2022-09-29T03:12:08;99183.34;;;4.42;100.00
68077;BME280;54866;53.458;14.540;2022-09-29T03:14:38;99183.79;;;4.42;100.00
68077;BME280;54866;53.458;14.540;2022-09-29T03:17:08;99184.68;;;4.42;100.00
68077;BME280;54866;53.458;14.540;2022-09-29T03:19:38;99190.40;;;4.43;100.00
68077;BME280;54866;53.458;14.540;2022-09-29T03:22:07;99188.70;;;4.42;100.00
68077;BME280;54866;53.458;14.540;2022-09-29T03:24:37;99191.99;;;4.40;99.99
68077;BME280;54866;53.458;14.540;2022-09-29T03:27:07;99196.39;;;4.40;100.00
68077;BME280;54866;53.458;14.540;2022-09-29T03:29:38;99194.17;;;4.39;100.00
68077;BME280;54866;53.458;14.540;2022-09-29T03:32:08;99197.48;;;4.39;100.00
68077;BME280;54866;53.458;14.540;2022-09-29T03:34:38;99200.79;;;4.39;100.00
68077;BME280;54866;53.458;14.540;2022-09-29T03:37:07;99203.48;;;4.41;100.00
68077;BME280;54866;53.458;14.540;2022-09-29T03:39:37;99204.40;;;4.42;100.00
68077;BME280;54866;53.458;14.540;2022-09-29T03:42:07;99206.48;;;4.44;100.00
68077;BME280;54866;53.458;14.540;2022-09-29T03:44:37;99207.63;;;4.45;100.00
68077;BME280;54866;53.458;14.540;2022-09-29T03:47:07;99210.41;;;4.45;100.00
68077;BME280;54866;53.458;14.540;2022-09-29T03:49:37;99215.48;;;4.45;100.00
68077;BME280;54866;53.458;14.540;2022-09-29T03:52:06;99219.20;;;4.42;100.00
68077;BME280;54866;53.458;14.540;2022-09-29T03:54:36;99217.30;;;4.40;100.00
68077;BME280;54866;53.458;14.540;2022-09-29T03:57:06;99222.33;;;4.38;100.00
68077;BME280;54866;53.458;14.540;2022-09-29T03:59:36;99222.26;;;4.39;100.00
68077;BME280;54866;53.458;14.540;2022-09-29T04:02:06;99222.64;;;4.38;100.00
68077;BME280;54866;53.458;14.540;2022-09-29T04:04:36;99223.98;;;4.35;100.00
68077;BME280;54866;53.458;14.540;2022-09-29T04:07:05;99221.04;;;4.32;100.00
68077;BME280;54866;53.458;14.540;2022-09-29T04:09:35;99220.42;;;4.31;100.00
68077;BME280;54866;53.458;14.540;2022-09-29T04:12:08;99223.02;;;4.31;100.00
68077;BME280;54866;53.458;14.540;2022-09-29T04:14:40;99225.05;;;4.32;100.00
68077;BME280;54866;53.458;14.540;2022-09-29T04:17:10;99228.02;;;4.32;100.00
68077;BME280;54866;53.458;14.540;2022-09-29T04:19:40;99233.18;;;4.30;100.00
68077;BME280;54866;53.458;14.540;2022-09-29T04:22:10;99230.90;;;4.31;100.00
68077;BME280;54866;53.458;14.540;2022-09-29T04:24:40;99231.23;;;4.31;100.00
68077;BME280;54866;53.458;14.540;2022-09-29T04:27:10;99234.02;;;4.31;100.00
68077;BME280;54866;53.458;14.540;2022-09-29T04:29:40;99235.85;;;4.32;100.00
68077;BME280;54866;53.458;14.540;2022-09-29T04:32:10;99241.05;;;4.32;100.00
68077;BME280;54866;53.458;14.540;2022-09-29T04:34:40;99245.98;;;4.34;100.00
68077;BME280;54866;53.458;14.540;2022-09-29T04:37:10;99250.57;;;4.33;100.00
68077;BME280;54866;53.458;14.540;2022-09-29T04:39:40;99249.83;;;4.32;100.00
68077;BME280;54866;53.458;14.540;2022-09-29T04:42:10;99248.95;;;4.32;100.00
68077;BME280;54866;53.458;14.540;2022-09-29T04:44:40;99243.37;;;4.32;100.00
68077;BME280;54866;53.458;14.540;2022-09-29T04:47:10;99245.79;;;4.30;100.00
68077;BME280;54866;53.458;14.540;2022-09-29T04:49:40;99244.60;;;4.30;100.00
68077;BME280;54866;53.458;14.540;2022-09-29T04:52:11;99244.57;;;4.30;100.00
68077;BME280;54866;53.458;14.540;2022-09-29T04:54:45;99246.09;;;4.30;100.00
68077;BME280;54866;53.458;14.540;2022-09-29T04:57:15;99251.48;;;4.30;100.00
68077;BME280;54866;53.458;14.540;2022-09-29T04:59:46;99250.70;;;4.31;100.00
68077;BME280;54866;53.458;14.540;2022-09-29T05:02:19;99252.11;;;4.31;100.00
68077;BME280;54866;53.458;14.540;2022-09-29T05:04:49;99254.52;;;4.32;100.00
68077;BME280;54866;53.458;14.540;2022-09-29T05:07:18;99253.52;;;4.31;100.00
68077;BME280;54866;53.458;14.540;2022-09-29T05:09:49;99257.73;;;4.31;100.00
68077;BME280;54866;53.458;14.540;2022-09-29T05:12:19;99253.90;;;4.33;100.00
68077;BME280;54866;53.458;14.540;2022-09-29T05:14:49;99260.62;;;4.34;100.00
68077;BME280;54866;53.458;14.540;2022-09-29T05:17:21;99266.17;;;4.35;100.00
68077;BME280;54866;53.458;14.540;2022-09-29T05:19:51;99270.84;;;4.35;100.00
68077;BME280;54866;53.458;14.540;2022-09-29T05:22:20;99272.86;;;4.36;100.00
68077;BME280;54866;53.458;14.540;2022-09-29T05:24:52;99278.19;;;4.37;100.00
68077;BME280;54866;53.458;14.540;2022-09-29T05:27:22;99278.33;;;4.35;100.00
68077;BME280;54866;53.458;14.540;2022-09-29T05:29:51;99279.58;;;4.35;100.00
68077;BME280;54866;53.458;14.540;2022-09-29T05:32:22;99280.17;;;4.36;100.00
68077;BME280;54866;53.458;14.540;2022-09-29T05:34:52;99282.01;;;4.40;100.00
68077;BME280;54866;53.458;14.540;2022-09-29T05:37:21;99280.28;;;4.42;100.00
68077;BME280;54866;53.458;14.540;2022-09-29T05:39:51;99281.13;;;4.42;100.00
68077;BME280;54866;53.458;14.540;2022-09-29T05:42:21;99284.20;;;4.45;100.00
68077;BME280;54866;53.458;14.540;2022-09-29T05:44:51;99284.27;;;4.49;100.00
68077;BME280;54866;53.458;14.540;2022-09-29T05:47:21;99286.42;;;4.53;100.00
68077;BME280;54866;53.458;14.540;2022-09-29T05:49:51;99289.85;;;4.56;100.00
68077;BME280;54866;53.458;14.540;2022-09-29T05:52:21;99292.70;;;4.60;100.00
68077;BME280;54866;53.458;14.540;2022-09-29T05:54:51;99291.42;;;4.65;100.00
68077;BME280;54866;53.458;14.540;2022-09-29T05:57:21;99295.48;;;4.71;100.00
68077;BME280;54866;53.458;14.540;2022-09-29T05:59:51;99295.75;;;4.79;100.00
68077;BME280;54866;53.458;14.540;2022-09-29T06:02:21;99301.25;;;4.85;100.00
68077;BME280;54866;53.458;14.540;2022-09-29T06:04:51;99306.45;;;4.90;100.00
68077;BME280;54866;53.458;14.540;2022-09-29T06:07:21;99311.89;;;4.92;100.00
68077;BME280;54866;53.458;14.540;2022-09-29T06:09:50;99313.23;;;4.92;100.00
68077;BME280;54866;53.458;14.540;2022-09-29T06:12:20;99313.95;;;4.94;100.00
68077;BME280;54866;53.458;14.540;2022-09-29T06:14:50;99314.30;;;4.94;100.00
68077;BME280;54866;53.458;14.540;2022-09-29T06:17:20;99311.38;;;4.94;100.00
68077;BME280;54866;53.458;14.540;2022-09-29T06:19:50;99307.34;;;4.92;100.00
68077;BME280;54866;53.458;14.540;2022-09-29T06:22:21;99307.80;;;4.93;100.00
68077;BME280;54866;53.458;14.540;2022-09-29T06:24:51;99311.41;;;4.96;100.00
68077;BME280;54866;53.458;14.540;2022-09-29T06:27:21;99313.40;;;4.97;100.00
68077;BME280;54866;53.458;14.540;2022-09-29T06:29:50;99319.48;;;4.99;100.00
68077;BME280;54866;53.458;14.540;2022-09-29T06:32:20;99323.16;;;5.01;100.00
68077;BME280;54866;53.458;14.540;2022-09-29T06:34:50;99331.66;;;5.00;100.00
68077;BME280;54866;53.458;14.540;2022-09-29T06:37:44;99337.48;;;4.97;99.79
68077;BME280;54866;53.458;14.540;2022-09-29T06:40:15;99340.23;;;4.93;99.67
68077;BME280;54866;53.458;14.540;2022-09-29T06:42:45;99341.88;;;4.92;99.80
68077;BME280;54866;53.458;14.540;2022-09-29T06:45:15;99341.08;;;4.87;99.83
68077;BME280;54866;53.458;14.540;2022-09-29T06:47:47;99341.15;;;4.81;99.95
68077;BME280;54866;53.458;14.540;2022-09-29T06:50:16;99343.60;;;4.76;100.00
68077;BME280;54866;53.458;14.540;2022-09-29T06:52:46;99347.14;;;4.73;100.00
68077;BME280;54866;53.458;14.540;2022-09-29T06:55:17;99347.93;;;4.72;100.00
68077;BME280;54866;53.458;14.540;2022-09-29T06:57:47;99348.67;;;4.74;100.00
68077;BME280;54866;53.458;14.540;2022-09-29T07:00:19;99351.88;;;4.80;100.00
68077;BME280;54866;53.458;14.540;2022-09-29T07:02:49;99345.13;;;4.83;100.00
68077;BME280;54866;53.458;14.540;2022-09-29T07:05:19;99349.59;;;4.87;100.00
68077;BME280;54866;53.458;14.540;2022-09-29T07:07:49;99350.67;;;4.93;100.00
68077;BME280;54866;53.458;14.540;2022-09-29T07:10:20;99352.62;;;4.97;100.00
68077;BME280;54866;53.458;14.540;2022-09-29T07:12:50;99351.97;;;5.04;100.00
68077;BME280;54866;53.458;14.540;2022-09-29T07:15:20;99342.05;;;5.08;100.00
68077;BME280;54866;53.458;14.540;2022-09-29T07:17:58;99351.95;;;5.31;100.00
68077;BME280;54866;53.458;14.540;2022-09-29T07:20:30;99348.79;;;5.47;100.00
68077;BME280;54866;53.458;14.540;2022-09-29T07:23:00;99352.11;;;5.60;100.00
68077;BME280;54866;53.458;14.540;2022-09-29T07:25:30;99356.10;;;5.67;100.00
68077;BME280;54866;53.458;14.540;2022-09-29T07:28:02;99353.09;;;5.76;100.00
68077;BME280;54866;53.458;14.540;2022-09-29T07:30:32;99353.20;;;5.88;100.00
68077;BME280;54866;53.458;14.540;2022-09-29T07:33:04;99355.54;;;6.00;100.00
68077;BME280;54866;53.458;14.540;2022-09-29T07:35:34;99356.05;;;6.09;100.00
68077;BME280;54866;53.458;14.540;2022-09-29T07:38:04;99362.98;;;6.21;100.00
68077;BME280;54866;53.458;14.540;2022-09-29T07:40:34;99367.65;;;6.26;100.00
68077;BME280;54866;53.458;14.540;2022-09-29T07:43:04;99369.75;;;6.32;100.00
68077;BME280;54866;53.458;14.540;2022-09-29T07:45:35;99363.16;;;6.34;100.00
68077;BME280;54866;53.458;14.540;2022-09-29T07:48:05;99372.86;;;6.48;100.00
68077;BME280;54866;53.458;14.540;2022-09-29T07:50:34;99373.37;;;6.60;100.00
68077;BME280;54866;53.458;14.540;2022-09-29T07:53:04;99372.04;;;6.72;100.00
68077;BME280;54866;53.458;14.540;2022-09-29T07:55:34;99374.48;;;6.81;100.00
68077;BME280;54866;53.458;14.540;2022-09-29T07:58:04;99379.84;;;6.83;99.73
68077;BME280;54866;53.458;14.540;2022-09-29T08:00:34;99374.96;;;6.81;99.64
68077;BME280;54866;53.458;14.540;2022-09-29T08:03:05;99383.09;;;6.80;99.55
68077;BME280;54866;53.458;14.540;2022-09-29T08:05:35;99376.73;;;6.83;99.42
68077;BME280;54866;53.458;14.540;2022-09-29T08:08:06;99387.80;;;6.88;99.48
68077;BME280;54866;53.458;14.540;2022-09-29T08:10:36;99391.92;;;6.98;99.91
68077;BME280;54866;53.458;14.540;2022-09-29T08:13:06;99390.80;;;7.09;100.00
68077;BME280;54866;53.458;14.540;2022-09-29T08:15:36;99391.42;;;7.20;99.51
68077;BME280;54866;53.458;14.540;2022-09-29T08:18:06;99396.17;;;7.33;99.34
68077;BME280;54866;53.458;14.540;2022-09-29T08:20:39;99398.40;;;7.62;99.14
68077;BME280;54866;53.458;14.540;2022-09-29T08:23:09;99409.07;;;7.76;98.07
68077;BME280;54866;53.458;14.540;2022-09-29T08:25:39;99397.32;;;7.72;97.80
68077;BME280;54866;53.458;14.540;2022-09-29T08:28:09;99411.38;;;7.86;97.63
68077;BME280;54866;53.458;14.540;2022-09-29T08:30:39;99415.02;;;8.00;97.16
68077;BME280;54866;53.458;14.540;2022-09-29T08:33:09;99415.02;;;8.16;97.37
68077;BME280;54866;53.458;14.540;2022-09-29T08:35:42;99416.90;;;8.48;97.10
68077;BME280;54866;53.458;14.540;2022-09-29T08:38:12;99414.58;;;8.82;95.66
68077;BME280;54866;53.458;14.540;2022-09-29T08:40:44;99418.81;;;8.93;94.33
68077;BME280;54866;53.458;14.540;2022-09-29T08:43:19;99422.50;;;8.87;93.39
68077;BME280;54866;53.458;14.540;2022-09-29T08:46:01;99408.92;;;8.70;93.13
68077;BME280;54866;53.458;14.540;2022-09-29T08:48:33;99423.89;;;8.80;92.69
68077;BME280;54866;53.458;14.540;2022-09-29T08:51:10;99429.48;;;8.74;92.64
68077;BME280;54866;53.458;14.540;2022-09-29T08:53:49;99428.19;;;8.65;91.80
68077;BME280;54866;53.458;14.540;2022-09-29T08:56:21;99434.94;;;8.74;92.13
68077;BME280;54866;53.458;14.540;2022-09-29T08:58:53;99430.63;;;8.85;92.81
68077;BME280;54866;53.458;14.540;2022-09-29T09:01:32;99440.41;;;8.97;92.43
68077;BME280;54866;53.458;14.540;2022-09-29T09:04:21;99437.55;;;9.03;91.66
68077;BME280;54866;53.458;14.540;2022-09-29T09:07:04;99438.64;;;9.12;91.15
68077;BME280;54866;53.458;14.540;2022-09-29T09:09:50;99440.77;;;9.19;90.68
68077;BME280;54866;53.458;14.540;2022-09-29T09:12:31;99436.58;;;9.46;90.37
68077;BME280;54866;53.458;14.540;2022-09-29T09:15:43;99438.82;;;9.91;88.69
68077;BME280;54866;53.458;14.540;2022-09-29T09:18:47;99437.68;;;10.68;83.22
68077;BME280;54866;53.458;14.540;2022-09-29T09:21:29;99439.73;;;10.72;82.41
68077;BME280;54866;53.458;14.540;2022-09-29T09:24:11;99440.59;;;10.94;81.69
68077;BME280;54866;53.458;14.540;2022-09-29T09:26:45;99437.29;;;11.16;80.66
68077;BME280;54866;53.458;14.540;2022-09-29T09:29:20;99439.54;;;12.37;78.75
68077;BME280;54866;53.458;14.540;2022-09-29T09:31:55;99431.92;;;14.63;71.57
68077;BME280;54866;53.458;14.540;2022-09-29T09:34:31;99432.72;;;15.52;67.69
68077;BME280;54866;53.458;14.540;2022-09-29T09:37:09;99434.83;;;15.34;68.17
68077;BME280;54866;53.458;14.540;2022-09-29T09:39:46;99433.05;;;15.01;67.01
68077;BME280;54866;53.458;14.540;2022-09-29T09:42:19;99430.25;;;14.70;65.62
68077;BME280;54866;53.458;14.540;2022-09-29T09:44:55;99427.89;;;15.02;65.57
68077;BME280;54866;53.458;14.540;2022-09-29T09:47:30;99428.46;;;15.99;63.52
68077;BME280;54866;53.458;14.540;2022-09-29T09:50:13;99423.88;;;16.46;60.01
68077;BME280;54866;53.458;14.540;2022-09-29T09:52:52;99431.77;;;16.29;59.64
68077;BME280;54866;53.458;14.540;2022-09-29T09:55:43;99422.05;;;17.46;57.91
68077;BME280;54866;53.458;14.540;2022-09-29T09:58:29;99422.06;;;17.67;53.38
68077;BME280;54866;53.458;14.540;2022-09-29T10:01:06;99427.39;;;16.72;54.31
68077;BME280;54866;53.458;14.540;2022-09-29T10:03:39;99439.89;;;17.42;54.05
68077;BME280;54866;53.458;14.540;2022-09-29T10:06:13;99435.41;;;18.83;51.28
68077;BME280;54866;53.458;14.540;2022-09-29T10:08:44;99430.19;;;20.16;50.56
68077;BME280;54866;53.458;14.540;2022-09-29T10:11:23;99426.02;;;21.03;45.88
68077;BME280;54866;53.458;14.540;2022-09-29T10:13:59;99431.09;;;21.39;44.36
68077;BME280;54866;53.458;14.540;2022-09-29T10:16:35;99444.81;;;20.36;44.90
68077;BME280;54866;53.458;14.540;2022-09-29T10:19:09;99444.65;;;20.45;44.58
68077;BME280;54866;53.458;14.540;2022-09-29T10:21:40;99445.56;;;20.96;42.32
68077;BME280;54866;53.458;14.540;2022-09-29T10:24:26;99449.38;;;20.88;42.16
68077;BME280;54866;53.458;14.540;2022-09-29T10:27:05;99447.83;;;20.24;42.78
68077;BME280;54866;53.458;14.540;2022-09-29T10:29:56;99442.80;;;19.15;44.84
68077;BME280;54866;53.458;14.540;2022-09-29T10:32:40;99448.92;;;17.98;47.03
68077;BME280;54866;53.458;14.540;2022-09-29T10:35:24;99449.95;;;17.10;49.27
68077;BME280;54866;53.458;14.540;2022-09-29T10:38:01;99456.89;;;16.83;50.43
68077;BME280;54866;53.458;14.540;2022-09-29T10:40:38;99466.09;;;17.79;48.88
68077;BME280;54866;53.458;14.540;2022-09-29T10:43:25;99456.54;;;18.93;47.79
68077;BME280;54866;53.458;14.540;2022-09-29T10:45:55;99454.23;;;19.96;46.49
68077;BME280;54866;53.458;14.540;2022-09-29T10:48:27;99456.23;;;20.82;44.03
68077;BME280;54866;53.458;14.540;2022-09-29T10:50:59;99454.34;;;21.30;41.65
68077;BME280;54866;53.458;14.540;2022-09-29T10:53:36;99456.04;;;21.74;41.43
68077;BME280;54866;53.458;14.540;2022-09-29T10:56:17;99464.69;;;21.79;38.65
68077;BME280;54866;53.458;14.540;2022-09-29T10:58:55;99453.58;;;21.66;39.90
68077;BME280;54866;53.458;14.540;2022-09-29T11:01:31;99461.49;;;22.27;39.62
68077;BME280;54866;53.458;14.540;2022-09-29T11:04:04;99454.84;;;22.52;38.93
68077;BME280;54866;53.458;14.540;2022-09-29T11:06:38;99456.83;;;22.80;38.10
68077;BME280;54866;53.458;14.540;2022-09-29T11:09:28;99462.20;;;23.07;37.35
68077;BME280;54866;53.458;14.540;2022-09-29T11:11:59;99470.02;;;22.57;36.82
68077;BME280;54866;53.458;14.540;2022-09-29T11:14:41;99472.02;;;21.63;39.04
68077;BME280;54866;53.458;14.540;2022-09-29T11:17:24;99481.52;;;20.55;41.46
68077;BME280;54866;53.458;14.540;2022-09-29T11:19:56;99487.07;;;19.82;42.38
68077;BME280;54866;53.458;14.540;2022-09-29T11:22:57;99482.34;;;19.54;43.11
68077;BME280;54866;53.458;14.540;2022-09-29T11:25:59;99478.60;;;20.04;42.82
68077;BME280;54866;53.458;14.540;2022-09-29T11:29:06;99484.70;;;20.21;42.57
68077;BME280;54866;53.458;14.540;2022-09-29T11:31:55;99475.75;;;20.02;42.45
68077;BME280;54866;53.458;14.540;2022-09-29T11:34:57;99484.13;;;19.11;43.69
68077;BME280;54866;53.458;14.540;2022-09-29T11:37:56;99492.90;;;18.09;45.09
68077;BME280;54866;53.458;14.540;2022-09-29T11:40:34;99493.45;;;17.41;46.85
68077;BME280;54866;53.458;14.540;2022-09-29T11:43:25;99497.54;;;16.84;48.85
68077;BME280;54866;53.458;14.540;2022-09-29T11:46:12;99493.64;;;16.43;50.51
68077;BME280;54866;53.458;14.540;2022-09-29T11:49:06;99498.17;;;16.13;51.82
68077;BME280;54866;53.458;14.540;2022-09-29T11:52:33;99503.60;;;15.77;52.71
68077;BME280;54866;53.458;14.540;2022-09-29T11:58:49;99503.85;;;16.95;51.25
68077;BME280;54866;53.458;14.540;2022-09-29T12:01:37;99506.10;;;16.72;50.24
68077;BME280;54866;53.458;14.540;2022-09-29T12:04:18;99509.74;;;16.68;49.89
68077;BME280;54866;53.458;14.540;2022-09-29T12:06:55;99507.34;;;17.28;48.45
68077;BME280;54866;53.458;14.540;2022-09-29T12:09:49;99506.20;;;17.75;48.54
68077;BME280;54866;53.458;14.540;2022-09-29T12:12:27;99510.45;;;18.79;45.69
68077;BME280;54866;53.458;14.540;2022-09-29T12:15:20;99499.24;;;19.45;42.87
68077;BME280;54866;53.458;14.540;2022-09-29T12:17:55;99505.23;;;19.75;41.59
68077;BME280;54866;53.458;14.540;2022-09-29T12:20:30;99506.09;;;20.17;41.61
68077;BME280;54866;53.458;14.540;2022-09-29T12:23:03;99506.49;;;20.54;40.73
68077;BME280;54866;53.458;14.540;2022-09-29T12:25:39;99500.54;;;21.07;40.74
68077;BME280;54866;53.458;14.540;2022-09-29T12:28:16;99504.14;;;21.50;39.39
68077;BME280;54866;53.458;14.540;2022-09-29T12:30:49;99511.77;;;21.72;38.64
68077;BME280;54866;53.458;14.540;2022-09-29T12:33:30;99506.43;;;21.92;38.03
68077;BME280;54866;53.458;14.540;2022-09-29T12:36:23;99512.95;;;22.02;37.25
68077;BME280;54866;53.458;14.540;2022-09-29T12:39:19;99522.63;;;21.91;37.31
68077;BME280;54866;53.458;14.540;2022-09-29T12:41:58;99523.45;;;21.87;38.32
68077;BME280;54866;53.458;14.540;2022-09-29T12:44:39;99524.20;;;21.94;37.68
68077;BME280;54866;53.458;14.540;2022-09-29T12:47:22;99520.34;;;21.75;38.34
68077;BME280;54866;53.458;14.540;2022-09-29T12:50:10;99525.70;;;21.73;38.85
68077;BME280;54866;53.458;14.540;2022-09-29T12:52:47;99530.48;;;21.93;38.80
68077;BME280;54866;53.458;14.540;2022-09-29T12:55:31;99527.33;;;21.74;38.27
68077;BME280;54866;53.458;14.540;2022-09-29T12:58:20;99531.25;;;21.40;39.23
68077;BME280;54866;53.458;14.540;2022-09-29T13:01:08;99520.45;;;20.68;40.11
68077;BME280;54866;53.458;14.540;2022-09-29T13:04:25;99538.66;;;19.67;41.00
68077;BME280;54866;53.458;14.540;2022-09-29T13:16:52;99548.52;;;16.57;47.27
68077;BME280;54866;53.458;14.540;2022-09-29T13:19:46;99549.75;;;16.04;48.38
68077;BME280;54866;53.458;14.540;2022-09-29T13:22:35;99555.39;;;15.61;49.51
68077;BME280;54866;53.458;14.540;2022-09-29T13:25:22;99559.23;;;15.36;50.61
68077;BME280;54866;53.458;14.540;2022-09-29T13:27:58;99562.73;;;15.01;51.60
68077;BME280;54866;53.458;14.540;2022-09-29T13:30:31;99557.68;;;14.63;52.47
68077;BME280;54866;53.458;14.540;2022-09-29T13:33:09;99558.64;;;14.43;52.97
68077;BME280;54866;53.458;14.540;2022-09-29T13:35:42;99561.00;;;14.33;53.52
68077;BME280;54866;53.458;14.540;2022-09-29T13:38:13;99569.34;;;14.95;52.35
68077;BME280;54866;53.458;14.540;2022-09-29T13:41:13;99566.02;;;15.58;49.88
68077;BME280;54866;53.458;14.540;2022-09-29T13:44:32;99573.50;;;15.97;49.24
68077;BME280;54866;53.458;14.540;2022-09-29T13:47:31;99549.43;;;15.89;49.10
68077;BME280;54866;53.458;14.540;2022-09-29T13:53:33;99575.39;;;15.57;51.31
68077;BME280;54866;53.458;14.540;2022-09-29T13:56:21;99556.40;;;15.19;52.37
68077;BME280;54866;53.458;14.540;2022-09-29T13:59:21;99570.72;;;14.85;53.54
68077;BME280;54866;53.458;14.540;2022-09-29T14:02:14;99580.39;;;14.53;54.70